Terminal Aerodrome Forecast
Issued by NWS

Home | Current Version | Previous Version | Text Only | Print | Product List | Glossary On
Versions: 1 2 3 4 5 6 7 8 9 10 11 12 13 14 15
000
FTUS46 KLOX 191100
TAFOXR
TAF
KOXR 191135Z 1912/2012 14003KT P6SM BKN016
     FM191600 VRB03KT P6SM OVC022
     FM191800 23006KT P6SM BKN022
     FM192100 25010KT P6SM SCT025
     FM200400 VRB03KT P6SM OVC018=

USA.gov is the U.S. government's official web portal to all federal, state and local government web resources and services.